San Antonio, Chile
Current Conditions -  °F | °C
As of 2:00 PM on Friday 24 Oct 2014 (Local Time) from SCSN Reporting Station
Clear Clear  
Wind Chill: 64°   Ceiling: Unl
Heat Index: 64°   Visibility: 6mi
Dew Point: 54°   Wind: 8mph
Humidity: 68%   Direction: 300°WNW
Pressure: 29.97"   Gusts: NA
Location:  33.6°S, 71.61°W
Report Text: SCSN 241800Z 30007KT CAVOK 18/12 Q1015
Loading
Personal Weather Stations






























Interactive Weather Map
Tropical Storm Tracking
New forecast layout! Learn more

10-Day Weather Forecast

Advertisements
Track Severe Weather on mobile